createdAt,value
2023-11-09T00:00:15.785Z,8.80
2023-11-09T00:05:18.138Z,7.10
2023-11-09T00:10:20.318Z,5.90
2023-11-09T00:15:22.380Z,5.80
2023-11-09T00:20:24.466Z,6.10
2023-11-09T00:25:26.775Z,5.60
2023-11-09T00:30:29.132Z,6.70
2023-11-09T00:35:31.432Z,5.10
2023-11-09T00:40:33.939Z,8.00
2023-11-09T00:45:36.117Z,5.80
2023-11-09T00:50:38.307Z,5.00
2023-11-09T00:55:40.579Z,6.40
2023-11-09T01:00:42.830Z,4.80
2023-11-09T01:05:44.871Z,5.00
2023-11-09T01:15:49.097Z,3.40
2023-11-09T01:20:51.391Z,5.60
2023-11-09T01:25:53.681Z,4.50
2023-11-09T01:30:55.925Z,5.50
2023-11-09T01:35:58.252Z,4.30
2023-11-09T01:41:00.440Z,2.20
2023-11-09T01:46:02.757Z,3.70
2023-11-09T01:51:05.394Z,3.30
2023-11-09T01:56:07.872Z,3.30
2023-11-09T02:01:12.634Z,3.10
2023-11-09T02:06:14.955Z,4.50
2023-11-09T02:11:17.311Z,3.80
2023-11-09T02:16:19.512Z,4.30
2023-11-09T02:21:21.931Z,3.80
2023-11-09T02:26:24.199Z,4.10
2023-11-09T02:31:26.356Z,5.00
2023-11-09T02:36:28.778Z,5.70
2023-11-09T02:41:31.268Z,4.40
2023-11-09T02:46:33.683Z,3.70
2023-11-09T02:51:36.067Z,3.80
2023-11-09T02:56:38.701Z,5.00
2023-11-09T03:01:40.970Z,3.40
2023-11-09T03:06:43.152Z,5.50
2023-11-09T03:16:47.393Z,6.30
2023-11-09T03:21:49.575Z,6.40
2023-11-09T03:26:51.968Z,7.60
2023-11-09T03:31:54.260Z,4.90
2023-11-09T03:36:56.552Z,6.90
2023-11-09T03:41:58.765Z,6.60
2023-11-09T03:47:01.285Z,8.90
2023-11-09T03:52:03.977Z,8.10
2023-11-09T03:57:06.318Z,8.40
2023-11-09T04:07:10.614Z,12.20
2023-11-09T04:12:12.858Z,21.70
2023-11-09T04:22:18.631Z,14.00
2023-11-09T04:27:20.955Z,17.70
2023-11-09T04:37:25.356Z,16.00
2023-11-09T04:42:27.824Z,22.50
2023-11-09T04:47:30.113Z,19.30
2023-11-09T04:52:32.500Z,18.80
2023-11-09T04:57:34.913Z,20.80
2023-11-09T05:02:37.162Z,20.80
2023-11-09T05:07:39.607Z,28.70
2023-11-09T05:12:42.060Z,28.60
2023-11-09T05:17:44.317Z,28.60
2023-11-09T05:22:48.322Z,30.00
2023-11-09T05:27:50.555Z,24.40
2023-11-09T05:37:55.161Z,21.90
2023-11-09T05:42:57.425Z,21.10
2023-11-09T05:47:59.675Z,23.20
2023-11-09T05:53:02.101Z,25.30
2023-11-09T05:58:04.480Z,24.00
2023-11-09T06:03:06.942Z,25.80
2023-11-09T06:08:09.385Z,19.50
2023-11-09T06:13:11.639Z,29.10
2023-11-09T06:18:14.114Z,27.70
2023-11-09T06:23:16.347Z,21.50
2023-11-09T06:28:19.157Z,20.70
2023-11-09T06:33:21.746Z,23.00
2023-11-09T06:38:23.908Z,22.50
2023-11-09T06:43:26.107Z,29.70
2023-11-09T06:48:28.562Z,22.00
2023-11-09T06:53:30.903Z,19.30
2023-11-09T06:58:33.151Z,25.30
2023-11-09T07:03:35.473Z,20.30
2023-11-09T07:08:37.617Z,21.60
2023-11-09T07:18:41.955Z,18.60
2023-11-09T07:23:44.311Z,15.00
2023-11-09T07:28:46.414Z,11.10
2023-11-09T07:38:50.768Z,13.80
2023-11-09T07:43:52.773Z,11.10
2023-11-09T07:48:55.001Z,12.40
2023-11-09T07:53:58.454Z,11.90
2023-11-09T07:59:01.200Z,9.80
2023-11-09T08:04:03.437Z,7.40
2023-11-09T08:09:06.245Z,11.20
2023-11-09T08:14:08.517Z,12.40
2023-11-09T08:19:11.189Z,15.80
2023-11-09T08:24:13.720Z,9.10
2023-11-09T08:29:15.895Z,16.30
2023-11-09T08:34:18.079Z,11.60
2023-11-09T08:39:20.502Z,12.50
2023-11-09T08:44:22.764Z,8.40
2023-11-09T08:49:25.075Z,10.20
2023-11-09T08:54:27.270Z,10.80
2023-11-09T08:59:31.528Z,11.80
2023-11-09T09:04:34.585Z,8.40
2023-11-09T09:09:44.882Z,8.90
2023-11-09T09:14:49.097Z,12.00
2023-11-09T09:19:51.632Z,12.10
2023-11-09T09:24:54.087Z,11.00
2023-11-09T09:29:56.354Z,11.90
2023-11-09T09:34:58.541Z,10.30
2023-11-09T09:40:00.857Z,9.10
2023-11-09T09:45:03.113Z,8.00
2023-11-09T09:50:06.120Z,8.00
2023-11-09T09:55:08.860Z,7.20
2023-11-09T10:00:11.898Z,7.30
2023-11-09T10:05:14.177Z,4.20
2023-11-09T10:10:16.386Z,4.20
2023-11-09T10:15:18.502Z,4.40
2023-11-09T10:20:20.862Z,4.20
2023-11-09T10:25:29.252Z,6.70
2023-11-09T10:30:45.930Z,4.10
2023-11-09T10:35:48.329Z,4.80
2023-11-09T10:41:14.444Z,3.30
2023-11-09T10:46:13.197Z,7.70
2023-11-09T10:51:15.231Z,4.90
2023-11-09T10:56:17.801Z,5.50
2023-11-09T11:01:23.475Z,5.40
2023-11-09T11:06:31.295Z,6.10
2023-11-09T11:11:33.573Z,5.60
2023-11-09T11:16:54.207Z,6.20
2023-11-09T11:22:19.720Z,4.60
2023-11-09T11:27:45.826Z,2.30
2023-11-09T11:32:49.650Z,2.60
2023-11-09T11:37:53.894Z,3.10
2023-11-09T11:42:57.184Z,4.70
2023-11-09T11:48:00.001Z,2.10
2023-11-09T11:53:02.697Z,2.90
2023-11-09T11:58:08.042Z,3.50
2023-11-09T12:03:11.083Z,4.90
2023-11-09T12:08:13.402Z,4.40
2023-11-09T12:13:15.608Z,5.70
2023-11-09T12:18:17.913Z,3.90
2023-11-09T12:23:19.944Z,4.40
2023-11-09T12:28:22.121Z,5.10
2023-11-09T12:33:24.383Z,4.10
2023-11-09T12:38:26.857Z,4.20
2023-11-09T12:43:36.302Z,6.10
2023-11-09T12:48:42.913Z,3.80
2023-11-09T12:53:45.072Z,5.00
2023-11-09T12:58:51.065Z,5.90
2023-11-09T13:03:54.002Z,7.60
2023-11-09T13:08:56.852Z,138.80
2023-11-09T13:14:00.380Z,4.40
2023-11-09T13:19:09.462Z,5.40
2023-11-09T13:24:17.758Z,2.80
2023-11-09T13:29:19.824Z,5.90
2023-11-09T13:34:22.228Z,4.70
2023-11-09T13:39:24.467Z,3.00
2023-11-09T13:44:26.707Z,4.20
2023-11-09T13:49:29.097Z,5.70
2023-11-09T13:54:32.610Z,4.90
2023-11-09T13:59:34.821Z,2.80
2023-11-09T14:04:37.254Z,3.80
2023-11-09T14:09:39.568Z,3.80
2023-11-09T14:14:42.166Z,2.60
2023-11-09T14:19:45.501Z,6.00
2023-11-09T14:24:47.774Z,3.10
2023-11-09T14:29:50.891Z,5.90
2023-11-09T14:34:53.357Z,3.00
2023-11-09T14:39:55.659Z,4.70
2023-11-09T14:44:57.850Z,6.40
2023-11-09T14:50:00.286Z,7.00
2023-11-09T14:55:02.624Z,5.70
2023-11-09T15:00:05.525Z,11.00
2023-11-09T15:05:09.096Z,16.30
2023-11-09T15:10:11.538Z,35.40
2023-11-09T15:15:13.734Z,82.70
2023-11-09T15:20:16.320Z,49.20
2023-11-09T15:25:18.644Z,19.70
2023-11-09T15:30:21.013Z,13.90
2023-11-09T15:35:23.348Z,15.80
2023-11-09T15:41:09.633Z,15.90
2023-11-09T15:45:47.857Z,15.70
2023-11-09T15:50:50.226Z,18.30
2023-11-09T15:55:52.438Z,20.20
2023-11-09T16:00:55.660Z,21.30
2023-11-09T16:05:59.112Z,31.40
2023-11-09T16:11:01.364Z,41.20
2023-11-09T16:16:04.729Z,33.50
2023-11-09T16:21:08.040Z,35.10
2023-11-09T16:26:10.889Z,31.90
2023-11-09T16:31:13.275Z,57.60
2023-11-09T16:36:15.830Z,58.60
2023-11-09T16:41:17.906Z,64.70
2023-11-09T16:46:20.284Z,73.80
2023-11-09T16:51:22.580Z,68.30
2023-11-09T16:56:24.698Z,69.50
2023-11-09T17:01:26.972Z,68.00
2023-11-09T17:06:29.565Z,72.10
2023-11-09T17:11:31.634Z,76.80
2023-11-09T17:21:35.887Z,79.60
2023-11-09T17:31:39.993Z,74.30
2023-11-09T17:36:42.277Z,70.60
2023-11-09T17:41:44.770Z,82.90
2023-11-09T17:46:47.423Z,95.10
2023-11-09T17:51:51.079Z,108.90
2023-11-09T17:56:53.455Z,92.60
2023-11-09T18:01:55.698Z,86.70
2023-11-09T18:06:58.140Z,94.70
2023-11-09T18:12:00.539Z,97.40
2023-11-09T18:17:02.849Z,102.30
2023-11-09T18:22:05.166Z,105.40
2023-11-09T18:27:07.432Z,92.00
2023-11-09T18:37:13.855Z,96.40
2023-11-09T18:42:16.405Z,91.30
2023-11-09T18:47:18.744Z,90.00
2023-11-09T18:52:21.085Z,106.00
2023-11-09T18:57:23.193Z,103.00
2023-11-09T19:02:25.381Z,115.10
2023-11-09T19:07:27.863Z,122.70
2023-11-09T19:12:30.155Z,121.00
2023-11-09T19:17:32.552Z,119.90
2023-11-09T19:22:35.536Z,140.70
2023-11-09T19:27:38.288Z,126.10
2023-11-09T19:32:40.743Z,117.30
2023-11-09T19:37:43.651Z,117.30
2023-11-09T19:42:48.881Z,117.10
2023-11-09T19:47:52.418Z,116.80
2023-11-09T19:52:54.638Z,98.60
2023-11-09T20:02:59.343Z,89.20
2023-11-09T20:08:01.749Z,89.10
2023-11-09T20:18:06.106Z,86.50
2023-11-09T20:23:08.592Z,104.20
2023-11-09T20:28:11.620Z,106.50
2023-11-09T20:33:14.048Z,119.00
2023-11-09T20:38:16.499Z,112.60
2023-11-09T20:48:20.737Z,92.10
2023-11-09T20:53:23.721Z,87.40
2023-11-09T20:58:25.801Z,87.70
2023-11-09T21:03:28.217Z,88.20
2023-11-09T21:08:30.417Z,89.60
2023-11-09T21:18:35.359Z,90.80
2023-11-09T21:23:37.717Z,103.90
2023-11-09T21:33:42.722Z,85.90
2023-11-09T21:38:45.184Z,87.10
2023-11-09T21:48:49.473Z,68.00
2023-11-09T21:53:51.746Z,71.90
2023-11-09T22:03:55.731Z,63.10
2023-11-09T22:14:00.277Z,52.80
2023-11-09T22:19:02.384Z,47.30
2023-11-09T22:24:05.121Z,41.10
2023-11-09T22:29:07.888Z,50.40
2023-11-09T22:34:10.263Z,54.30
2023-11-09T22:39:12.766Z,51.80
2023-11-09T22:49:17.950Z,42.50
2023-11-09T22:54:20.141Z,31.90
2023-11-09T22:59:22.709Z,30.70
2023-11-09T23:09:26.899Z,30.70
2023-11-09T23:19:31.566Z,28.70
2023-11-09T23:29:35.688Z,25.20
2023-11-09T23:34:37.854Z,26.90
2023-11-09T23:39:39.979Z,21.20
2023-11-09T23:44:42.785Z,21.90
2023-11-09T23:49:44.802Z,24.50
2023-11-09T23:54:46.878Z,25.50
2023-11-09T23:59:48.972Z,24.50
